createdAt,value
2022-09-26T00:01:31.321Z,97553.31
2022-09-26T00:03:58.934Z,97542.25
2022-09-26T00:06:25.342Z,97547.22
2022-09-26T00:08:51.684Z,97528.91
2022-09-26T00:11:18.825Z,97529.94
2022-09-26T00:13:45.151Z,97530.28
2022-09-26T00:16:12.003Z,97523.16
2022-09-26T00:18:38.778Z,97530.09
2022-09-26T00:21:05.904Z,97526.06
2022-09-26T00:23:32.245Z,97521.63
2022-09-26T00:25:58.624Z,97513.44
2022-09-26T00:28:24.962Z,97516.47
2022-09-26T00:30:51.333Z,97517.84
2022-09-26T00:33:17.695Z,97516.72
2022-09-26T00:35:51.155Z,97513.00
2022-09-26T00:38:17.674Z,97512.25
2022-09-26T00:40:44.169Z,97513.44
2022-09-26T00:43:31.153Z,97492.47
2022-09-26T00:46:06.354Z,97506.41
2022-09-26T00:48:32.858Z,97502.03
2022-09-26T00:50:59.169Z,97501.75
2022-09-26T00:53:26.149Z,97495.50
2022-09-26T00:56:00.030Z,97489.63
2022-09-26T00:58:34.024Z,97485.59
2022-09-26T01:01:00.902Z,97489.38
2022-09-26T01:03:27.602Z,97479.34
2022-09-26T01:05:53.937Z,97479.72
2022-09-26T01:08:21.128Z,97478.19
2022-09-26T01:10:47.467Z,97469.81
2022-09-26T01:13:13.813Z,97459.38
2022-09-26T01:15:40.249Z,97453.03
2022-09-26T01:18:07.604Z,97448.16
2022-09-26T01:20:33.964Z,97452.19
2022-09-26T01:23:06.421Z,97444.84
2022-09-26T01:25:35.876Z,97442.44
2022-09-26T01:28:08.166Z,97437.44
2022-09-26T01:30:41.580Z,97443.44
2022-09-26T01:33:23.397Z,97428.91
2022-09-26T01:35:59.095Z,97431.13
2022-09-26T01:38:36.082Z,97431.88
2022-09-26T01:41:08.348Z,97427.94
2022-09-26T01:43:34.618Z,97428.81
2022-09-26T01:46:04.381Z,97438.09
2022-09-26T01:48:31.149Z,97430.00
2022-09-26T01:51:17.675Z,97430.25
2022-09-26T01:53:47.136Z,97426.34
2022-09-26T01:56:14.617Z,97422.03
2022-09-26T01:58:40.894Z,97421.06
2022-09-26T02:01:09.668Z,97417.66
2022-09-26T02:03:36.720Z,97418.41
2022-09-26T02:06:04.261Z,97410.81
2022-09-26T02:08:30.544Z,97413.13
2022-09-26T02:10:59.774Z,97407.31
2022-09-26T02:13:35.787Z,97406.72
2022-09-26T02:16:07.025Z,97404.06
2022-09-26T02:18:35.074Z,97393.00
2022-09-26T02:21:02.148Z,97382.06
2022-09-26T02:23:28.701Z,97387.50
2022-09-26T02:25:55.090Z,97381.72
2022-09-26T02:28:22.001Z,97377.00
2022-09-26T02:30:49.153Z,97377.25
2022-09-26T02:33:15.507Z,97376.25
2022-09-26T02:35:54.704Z,97376.91
2022-09-26T02:38:24.935Z,97374.13
2022-09-26T02:40:53.107Z,97361.28
2022-09-26T02:43:38.691Z,97358.03
2022-09-26T02:46:13.936Z,97363.25
2022-09-26T02:48:48.820Z,97357.19
2022-09-26T02:51:21.152Z,97341.25
2022-09-26T02:54:13.821Z,97339.84
2022-09-26T02:56:43.593Z,97341.88
2022-09-26T02:59:23.363Z,97334.28
2022-09-26T03:01:49.658Z,97336.50
2022-09-26T03:04:19.415Z,97327.34
2022-09-26T03:06:46.718Z,97330.91
2022-09-26T03:09:13.120Z,97321.91
2022-09-26T03:11:39.557Z,97320.47
2022-09-26T03:14:05.942Z,97311.75
2022-09-26T03:16:34.229Z,97307.13
2022-09-26T03:19:06.047Z,97288.63
2022-09-26T03:21:36.162Z,97299.91
2022-09-26T03:24:03.400Z,97292.06
2022-09-26T03:26:29.730Z,97289.53
2022-09-26T03:28:56.752Z,97286.19
2022-09-26T03:31:24.779Z,97277.66
2022-09-26T03:33:51.974Z,97279.00
2022-09-26T03:36:18.316Z,97273.91
2022-09-26T03:38:44.701Z,97272.41
2022-09-26T03:41:11.028Z,97265.63
2022-09-26T03:43:37.353Z,97269.34
2022-09-26T03:46:04.277Z,97261.06
2022-09-26T03:48:30.976Z,97263.06
2022-09-26T03:51:03.919Z,97258.50
2022-09-26T03:53:33.706Z,97261.47
2022-09-26T03:56:04.242Z,97252.16
2022-09-26T03:58:30.619Z,97245.53
2022-09-26T04:01:02.225Z,97239.41
2022-09-26T04:03:28.609Z,97234.94
2022-09-26T04:05:54.927Z,97238.78
2022-09-26T04:08:21.264Z,97244.91
2022-09-26T04:10:47.567Z,97232.63
2022-09-26T04:13:33.701Z,97228.72
2022-09-26T04:16:01.404Z,97221.06
2022-09-26T04:18:28.232Z,97212.97
2022-09-26T04:20:58.668Z,97218.44
2022-09-26T04:23:28.291Z,97220.25
2022-09-26T04:25:54.668Z,97206.09
2022-09-26T04:28:21.010Z,97206.66
2022-09-26T04:30:47.319Z,97197.94
2022-09-26T04:33:13.659Z,97196.41
2022-09-26T04:35:39.992Z,97184.06
2022-09-26T04:38:06.309Z,97186.91
2022-09-26T04:40:32.756Z,97183.34
2022-09-26T04:42:59.212Z,97185.13
2022-09-26T04:45:25.563Z,97171.84
2022-09-26T04:47:51.917Z,97169.72
2022-09-26T04:50:18.271Z,97171.03
2022-09-26T04:52:44.689Z,97160.78
2022-09-26T04:55:11.058Z,97162.22
2022-09-26T04:57:38.055Z,97162.06
2022-09-26T05:00:07.068Z,97158.88
2022-09-26T05:02:35.503Z,97150.38
2022-09-26T05:05:01.858Z,97142.47
2022-09-26T05:07:29.399Z,97146.66
2022-09-26T05:09:55.725Z,97147.53
2022-09-26T05:12:22.203Z,97142.16
2022-09-26T05:14:48.604Z,97144.56
2022-09-26T05:17:15.458Z,97125.31
2022-09-26T05:19:43.039Z,97124.06
2022-09-26T05:22:10.581Z,97127.47
2022-09-26T05:24:55.685Z,97122.47
2022-09-26T05:27:23.944Z,97121.31
2022-09-26T05:29:52.181Z,97117.75
2022-09-26T05:32:20.655Z,97116.06
2022-09-26T05:34:47.123Z,97120.19
2022-09-26T05:37:13.459Z,97114.19
2022-09-26T05:40:03.004Z,97110.47
2022-09-26T05:42:29.378Z,97110.25
2022-09-26T05:44:55.685Z,97104.84
2022-09-26T05:47:21.987Z,97100.66
2022-09-26T05:49:48.898Z,97105.88
2022-09-26T05:52:15.210Z,97106.31
2022-09-26T05:54:41.540Z,97098.50
2022-09-26T05:57:07.861Z,97097.81
2022-09-26T05:59:34.616Z,97092.72
2022-09-26T06:02:00.955Z,97093.19
2022-09-26T06:04:29.347Z,97094.94
2022-09-26T06:06:55.769Z,97095.94
2022-09-26T06:09:23.077Z,97084.00
2022-09-26T06:11:49.437Z,97084.06
2022-09-26T06:14:15.785Z,97088.78
2022-09-26T06:16:42.221Z,97084.47
2022-09-26T06:19:08.630Z,97077.28
2022-09-26T06:21:35.176Z,97080.84
2022-09-26T06:24:01.578Z,97072.13
2022-09-26T06:26:28.970Z,97076.06
2022-09-26T06:29:00.148Z,97083.50
2022-09-26T06:31:26.754Z,97078.84
2022-09-26T06:33:56.325Z,97073.53
2022-09-26T06:36:22.943Z,97078.41
2022-09-26T06:38:51.633Z,97070.97
2022-09-26T06:41:18.030Z,97067.28
2022-09-26T06:43:47.655Z,97061.72
2022-09-26T06:46:14.812Z,97068.94
2022-09-26T06:48:41.247Z,97062.41
2022-09-26T06:51:08.202Z,97059.38
2022-09-26T06:53:37.572Z,97060.69
2022-09-26T06:56:05.990Z,97060.63
2022-09-26T06:58:32.323Z,97060.38
2022-09-26T07:00:58.981Z,97058.88
2022-09-26T07:03:26.564Z,97052.91
2022-09-26T07:05:58.907Z,97054.41
2022-09-26T07:08:43.292Z,97045.34
2022-09-26T07:11:32.838Z,97050.56
2022-09-26T07:14:00.257Z,97038.91
2022-09-26T07:16:26.940Z,97036.25
2022-09-26T07:18:53.461Z,97036.00
2022-09-26T07:21:19.839Z,97022.91
2022-09-26T07:23:46.478Z,97024.53
2022-09-26T07:26:12.791Z,97017.16
2022-09-26T07:28:39.155Z,97019.19
2022-09-26T07:31:05.682Z,97019.81
2022-09-26T07:33:32.087Z,97018.44
2022-09-26T07:36:03.174Z,97014.00
2022-09-26T07:38:31.716Z,97014.44
2022-09-26T07:40:59.195Z,96998.69
2022-09-26T07:43:44.979Z,97000.38
2022-09-26T07:46:30.609Z,96998.91
2022-09-26T07:49:15.812Z,97001.06
2022-09-26T07:51:42.329Z,96997.50
2022-09-26T07:54:08.733Z,96996.38
2022-09-26T07:56:35.137Z,96987.19
2022-09-26T07:59:05.329Z,96990.78
2022-09-26T08:01:31.773Z,96988.06
2022-09-26T08:03:58.536Z,96983.75
2022-09-26T08:06:25.113Z,96984.16
2022-09-26T08:08:58.184Z,96979.91
2022-09-26T08:11:24.827Z,96987.44
2022-09-26T08:13:51.159Z,96984.31
2022-09-26T08:16:23.812Z,96982.84
2022-09-26T08:18:50.740Z,96983.28
2022-09-26T08:21:17.954Z,96974.22
2022-09-26T08:23:44.522Z,96977.47
2022-09-26T08:26:10.854Z,96973.41
2022-09-26T08:28:37.446Z,96977.75
2022-09-26T08:31:05.120Z,96967.84
2022-09-26T08:33:34.379Z,96968.97
2022-09-26T08:36:07.354Z,96963.41
2022-09-26T08:38:33.810Z,96969.44
2022-09-26T08:41:16.385Z,96962.78
2022-09-26T08:43:45.622Z,96968.78
2022-09-26T08:46:36.480Z,96960.84
2022-09-26T08:49:16.722Z,96958.03
2022-09-26T08:51:45.183Z,96954.84
2022-09-26T08:54:25.949Z,96949.69
2022-09-26T08:56:53.191Z,96954.03
2022-09-26T08:59:25.530Z,96940.94
2022-09-26T09:01:52.471Z,96939.31
2022-09-26T09:04:35.573Z,96940.13
2022-09-26T09:07:04.660Z,96933.38
2022-09-26T09:09:30.991Z,96936.56
2022-09-26T09:12:04.360Z,96936.97
2022-09-26T09:14:41.006Z,96933.38
2022-09-26T09:17:10.865Z,96934.19
2022-09-26T09:19:56.049Z,96933.44
2022-09-26T09:22:32.311Z,96933.41
2022-09-26T09:24:59.701Z,96941.34
2022-09-26T09:30:22.333Z,96924.28
2022-09-26T09:32:51.715Z,96932.22
2022-09-26T09:35:19.343Z,96925.06
2022-09-26T09:37:52.131Z,96921.06
2022-09-26T09:40:26.614Z,96922.28
2022-09-26T09:42:54.756Z,96915.50
2022-09-26T09:45:24.159Z,96910.69
2022-09-26T09:47:50.492Z,96914.66
2022-09-26T09:50:22.637Z,96914.28
2022-09-26T09:52:52.008Z,96909.13
2022-09-26T09:55:25.567Z,96920.69
2022-09-26T09:58:01.156Z,96907.97
2022-09-26T10:00:28.097Z,96906.78
2022-09-26T10:02:54.790Z,96911.16
2022-09-26T10:05:25.512Z,96906.34
2022-09-26T10:07:58.057Z,96898.03
2022-09-26T10:10:28.559Z,96896.03
2022-09-26T10:12:55.761Z,96902.41
2022-09-26T10:15:26.137Z,96888.09
2022-09-26T10:20:55.550Z,96886.09
2022-09-26T10:23:39.569Z,96883.72
2022-09-26T10:26:06.580Z,96880.13
2022-09-26T10:28:35.354Z,96884.03
2022-09-26T10:31:03.555Z,96882.84
2022-09-26T10:33:30.807Z,96883.63
2022-09-26T10:36:05.011Z,96880.41
2022-09-26T10:38:31.330Z,96874.91
2022-09-26T10:40:59.343Z,96872.91
2022-09-26T10:43:32.416Z,96869.66
2022-09-26T10:46:09.142Z,96864.09
2022-09-26T10:48:49.063Z,96871.25
2022-09-26T10:51:21.534Z,96861.38
2022-09-26T10:53:48.570Z,96866.13
2022-09-26T10:56:20.580Z,96862.50
2022-09-26T10:58:47.247Z,96864.88
2022-09-26T11:01:19.106Z,96860.84
2022-09-26T11:03:45.813Z,96856.53
2022-09-26T11:06:31.071Z,96864.16
2022-09-26T11:08:58.393Z,96857.06
2022-09-26T11:11:24.973Z,96859.38
2022-09-26T11:14:08.483Z,96849.84
2022-09-26T11:16:39.384Z,96848.97
2022-09-26T11:19:08.132Z,96849.00
2022-09-26T11:21:53.285Z,96837.91
2022-09-26T11:24:27.552Z,96831.94
2022-09-26T11:26:53.839Z,96830.81
2022-09-26T11:29:20.123Z,96827.22
2022-09-26T11:31:46.450Z,96828.13
2022-09-26T11:34:15.108Z,96830.91
2022-09-26T11:37:04.918Z,96829.31
2022-09-26T11:39:35.307Z,96823.00
2022-09-26T11:42:01.765Z,96822.97
2022-09-26T11:44:43.812Z,96823.34
2022-09-26T11:47:19.205Z,96810.25
2022-09-26T11:49:50.042Z,96815.84
2022-09-26T11:52:26.769Z,96815.41
2022-09-26T11:55:12.488Z,96811.84
2022-09-26T11:57:45.016Z,96805.88
2022-09-26T12:00:13.180Z,96804.69
2022-09-26T12:03:05.947Z,96795.16
2022-09-26T12:05:35.325Z,96795.97
2022-09-26T12:08:09.478Z,96783.66
2022-09-26T12:10:53.221Z,96781.69
2022-09-26T12:13:29.679Z,96775.34
2022-09-26T12:15:58.697Z,96772.56
2022-09-26T12:18:25.051Z,96775.72
2022-09-26T12:21:01.189Z,96767.38
2022-09-26T12:23:27.456Z,96757.84
2022-09-26T12:26:13.389Z,96752.25
2022-09-26T12:28:41.067Z,96747.53
2022-09-26T12:31:13.100Z,96742.75
2022-09-26T12:33:53.514Z,96738.78
2022-09-26T12:36:40.435Z,96740.34
2022-09-26T12:39:13.830Z,96738.78
2022-09-26T12:41:48.011Z,96731.22
2022-09-26T12:44:27.108Z,96723.69
2022-09-26T12:47:05.600Z,96718.13
2022-09-26T12:49:37.914Z,96714.56
2022-09-26T12:52:27.593Z,96704.59
2022-09-26T12:55:12.972Z,96708.59
2022-09-26T12:57:43.057Z,96699.84
2022-09-26T13:00:10.425Z,96700.66
2022-09-26T13:02:42.965Z,96697.50
2022-09-26T13:05:22.547Z,96697.50
2022-09-26T13:07:54.963Z,96702.66
2022-09-26T13:10:25.090Z,96688.75
2022-09-26T13:12:51.347Z,96684.00
2022-09-26T13:15:23.090Z,96674.88
2022-09-26T13:17:52.243Z,96677.59
2022-09-26T13:20:19.926Z,96676.41
2022-09-26T13:22:46.230Z,96666.50
2022-09-26T13:25:19.893Z,96670.50
2022-09-26T13:27:52.270Z,96667.31
2022-09-26T13:30:19.454Z,96657.78
2022-09-26T13:32:47.503Z,96665.34
2022-09-26T13:35:23.545Z,96657.78
2022-09-26T13:38:03.982Z,96655.41
2022-09-26T13:40:51.698Z,96657.78
2022-09-26T13:43:44.356Z,96646.28
2022-09-26T13:46:12.817Z,96646.28
2022-09-26T13:48:42.165Z,96650.25
2022-09-26T13:51:11.618Z,96633.56
2022-09-26T13:53:40.407Z,96638.69
2022-09-26T13:56:27.498Z,96635.97
2022-09-26T13:59:12.243Z,96625.25
2022-09-26T14:01:39.045Z,96620.91
2022-09-26T14:04:24.280Z,96622.91
2022-09-26T14:07:02.835Z,96617.34
2022-09-26T14:09:42.071Z,96610.19
2022-09-26T14:12:19.964Z,96607.44
2022-09-26T14:15:06.765Z,96609.00
2022-09-26T14:17:42.256Z,96601.47
2022-09-26T14:20:15.251Z,96607.78
2022-09-26T14:22:49.394Z,96606.59
2022-09-26T14:25:34.709Z,96594.31
2022-09-26T14:28:17.052Z,96585.53
2022-09-26T14:31:03.373Z,96581.59
2022-09-26T14:33:29.705Z,96581.22
2022-09-26T14:36:15.950Z,96574.81
2022-09-26T14:38:42.337Z,96576.03
2022-09-26T14:41:13.670Z,96574.09
2022-09-26T14:43:39.973Z,96569.66
2022-09-26T14:46:07.661Z,96580.78
2022-09-26T14:48:43.361Z,96571.25
2022-09-26T14:51:15.374Z,96569.28
2022-09-26T14:54:01.908Z,96555.38
2022-09-26T14:56:32.570Z,96573.69
2022-09-26T14:59:17.760Z,96554.25
2022-09-26T15:01:44.167Z,96559.41
2022-09-26T15:04:20.622Z,96551.91
2022-09-26T15:06:47.845Z,96547.09
2022-09-26T15:09:32.618Z,96544.34
2022-09-26T15:11:59.899Z,96532.41
2022-09-26T15:14:29.919Z,96534.06
2022-09-26T15:16:56.269Z,96529.28
2022-09-26T15:19:25.119Z,96526.88
2022-09-26T15:21:55.660Z,96528.09
2022-09-26T15:24:33.270Z,96524.88
2022-09-26T15:27:09.377Z,96525.28
2022-09-26T15:29:36.094Z,96523.31
2022-09-26T15:32:02.430Z,96530.88
2022-09-26T15:34:35.235Z,96510.19
2022-09-26T15:37:04.256Z,96516.53
2022-09-26T15:39:30.636Z,96503.84
2022-09-26T15:42:15.754Z,96505.41
2022-09-26T15:44:48.170Z,96504.63
2022-09-26T15:47:30.105Z,96507.41
2022-09-26T15:50:04.085Z,96490.28
2022-09-26T15:52:30.398Z,96501.06
2022-09-26T15:54:56.711Z,96489.94
2022-09-26T15:57:23.023Z,96491.53
2022-09-26T15:59:49.334Z,96489.56
2022-09-26T16:02:20.286Z,96490.41
2022-09-26T16:04:46.638Z,96495.97
2022-09-26T16:07:17.561Z,96484.81
2022-09-26T16:09:44.121Z,96481.69
2022-09-26T16:12:16.580Z,96477.72
2022-09-26T16:14:46.715Z,96468.59
2022-09-26T16:17:15.759Z,96467.84
2022-09-26T16:19:46.349Z,96466.28
2022-09-26T16:22:36.688Z,96467.88
2022-09-26T16:25:15.155Z,96464.28
2022-09-26T16:27:41.467Z,96460.34
2022-09-26T16:30:23.685Z,96457.94
2022-09-26T16:32:50.789Z,96463.13
2022-09-26T16:35:18.140Z,96457.22
2022-09-26T16:37:44.464Z,96458.41
2022-09-26T16:40:17.380Z,96463.56
2022-09-26T16:42:46.252Z,96454.84
2022-09-26T16:45:12.802Z,96453.69
2022-09-26T16:47:42.900Z,96451.25
2022-09-26T16:50:31.087Z,96454.84
2022-09-26T16:52:57.665Z,96442.53
2022-09-26T16:55:24.323Z,96435.81
2022-09-26T16:57:51.863Z,96441.34
2022-09-26T17:00:37.499Z,96436.19
2022-09-26T17:03:04.063Z,96431.88
2022-09-26T17:05:30.459Z,96431.88
2022-09-26T17:07:56.778Z,96428.72
2022-09-26T17:10:23.635Z,96427.53
2022-09-26T17:12:53.437Z,96423.56
2022-09-26T17:15:22.240Z,96425.53
2022-09-26T17:17:48.677Z,96427.94
2022-09-26T17:20:15.658Z,96415.66
2022-09-26T17:22:42.051Z,96417.66
2022-09-26T17:25:11.343Z,96420.03
2022-09-26T17:27:39.209Z,96413.28
2022-09-26T17:30:07.333Z,96414.47
2022-09-26T17:32:37.237Z,96412.13
2022-09-26T17:35:04.827Z,96412.91
2022-09-26T17:37:31.456Z,96417.66
2022-09-26T17:39:57.851Z,96406.97
2022-09-26T17:42:25.080Z,96405.78
2022-09-26T17:44:51.411Z,96405.00
2022-09-26T17:47:18.162Z,96403.41
2022-09-26T17:49:46.351Z,96396.66
2022-09-26T17:52:18.481Z,96397.06
2022-09-26T17:54:45.554Z,96386.75
2022-09-26T17:57:12.597Z,96387.94
2022-09-26T17:59:42.168Z,96396.66
2022-09-26T18:02:24.290Z,96388.72
2022-09-26T18:04:52.126Z,96381.19
2022-09-26T18:07:18.471Z,96384.41
2022-09-26T18:09:44.837Z,96381.63
2022-09-26T18:12:13.883Z,96382.41
2022-09-26T18:14:40.946Z,96377.66
2022-09-26T18:17:09.256Z,96375.28
2022-09-26T18:19:36.658Z,96378.84
2022-09-26T18:22:02.995Z,96369.75
2022-09-26T18:24:29.338Z,96366.94
2022-09-26T18:27:00.822Z,96365.75
2022-09-26T18:29:28.915Z,96357.47
2022-09-26T18:31:55.231Z,96374.09
2022-09-26T18:34:21.530Z,96365.75
2022-09-26T18:36:51.897Z,96358.66
2022-09-26T18:39:18.354Z,96360.63
2022-09-26T18:41:45.200Z,96356.66
2022-09-26T18:44:14.554Z,96358.63
2022-09-26T18:46:44.365Z,96358.25
2022-09-26T18:49:10.923Z,96357.06
2022-09-26T18:51:37.268Z,96360.63
2022-09-26T18:54:10.724Z,96359.44
2022-09-26T18:56:56.461Z,96347.16
2022-09-26T18:59:26.771Z,96342.41
2022-09-26T19:01:55.567Z,96346.75
2022-09-26T19:04:22.163Z,96347.16
2022-09-26T19:06:49.427Z,96338.44
2022-09-26T19:09:16.557Z,96327.75
2022-09-26T19:11:42.963Z,96333.31
2022-09-26T19:14:16.203Z,96334.09
2022-09-26T19:16:43.142Z,96324.97
2022-09-26T19:19:09.611Z,96331.31
2022-09-26T19:21:39.008Z,96326.59
2022-09-26T19:24:07.016Z,96321.44
2022-09-26T19:26:37.743Z,96315.50
2022-09-26T19:29:06.838Z,96311.94
2022-09-26T19:31:35.255Z,96304.44
2022-09-26T19:34:02.010Z,96297.31
2022-09-26T19:36:28.587Z,96303.66
2022-09-26T19:38:55.020Z,96300.47
2022-09-26T19:41:22.081Z,96293.75
2022-09-26T19:43:48.405Z,96296.53
2022-09-26T19:46:17.018Z,96297.31
2022-09-26T19:48:43.396Z,96285.06
2022-09-26T19:51:10.783Z,96292.97
2022-09-26T19:53:37.085Z,96288.59
2022-09-26T19:56:04.085Z,96288.22
2022-09-26T19:58:30.949Z,96285.44
2022-09-26T20:00:57.829Z,96276.75
2022-09-26T20:03:29.274Z,96282.66
2022-09-26T20:05:55.597Z,96283.06
2022-09-26T20:08:22.867Z,96279.53
2022-09-26T20:10:49.567Z,96283.88
2022-09-26T20:13:15.961Z,96265.28
2022-09-26T20:15:42.306Z,96272.78
2022-09-26T20:18:11.480Z,96261.31
2022-09-26T20:20:38.291Z,96254.97
2022-09-26T20:23:04.627Z,96248.25
2022-09-26T20:25:31.365Z,96251.41
2022-09-26T20:27:57.765Z,96240.75
2022-09-26T20:30:42.956Z,96242.72
2022-09-26T20:33:09.438Z,96245.09
2022-09-26T20:35:36.912Z,96240.75
2022-09-26T20:38:03.721Z,96230.84
2022-09-26T20:40:30.160Z,96230.84
2022-09-26T20:42:57.643Z,96231.25
2022-09-26T20:45:29.623Z,96224.50
2022-09-26T20:47:57.466Z,96227.28
2022-09-26T20:50:23.781Z,96212.66
2022-09-26T20:52:50.106Z,96208.31
2022-09-26T20:55:17.988Z,96205.94
2022-09-26T20:57:44.451Z,96200.81
2022-09-26T21:00:17.780Z,96203.94
2022-09-26T21:02:44.481Z,96196.84
2022-09-26T21:05:14.606Z,96196.03
2022-09-26T21:07:40.949Z,96187.75
2022-09-26T21:10:26.111Z,96191.72
2022-09-26T21:12:52.459Z,96188.94
2022-09-26T21:15:18.977Z,96187.75
2022-09-26T21:17:45.828Z,96178.63
2022-09-26T21:20:38.491Z,96175.88
2022-09-26T21:23:04.870Z,96180.63
2022-09-26T21:25:31.324Z,96162.03
2022-09-26T21:27:58.732Z,96166.78
2022-09-26T21:30:25.120Z,96168.38
2022-09-26T21:32:51.871Z,96161.66
2022-09-26T21:35:18.376Z,96162.03
2022-09-26T21:37:45.281Z,96164.41
2022-09-26T21:40:11.618Z,96159.28
2022-09-26T21:42:38.015Z,96157.28
2022-09-26T21:45:05.682Z,96152.19
2022-09-26T21:47:32.113Z,96154.56
2022-09-26T21:49:58.432Z,96154.94
2022-09-26T21:52:24.804Z,96147.03
2022-09-26T21:54:51.123Z,96140.72
2022-09-26T21:57:18.671Z,96148.63
2022-09-26T21:59:45.043Z,96142.66
2022-09-26T22:02:11.498Z,96135.56
2022-09-26T22:04:37.898Z,96134.78
2022-09-26T22:07:04.227Z,96136.34
2022-09-26T22:09:30.536Z,96134.75
2022-09-26T22:11:56.898Z,96132.00
2022-09-26T22:14:23.247Z,96122.13
2022-09-26T22:16:49.672Z,96119.38
2022-09-26T22:19:16.600Z,96122.53
2022-09-26T22:21:43.134Z,96114.22
2022-09-26T22:24:10.413Z,96108.28
2022-09-26T22:26:36.926Z,96106.72
2022-09-26T22:29:03.225Z,96106.72
2022-09-26T22:31:29.550Z,96106.31
2022-09-26T22:33:56.577Z,96101.19
2022-09-26T22:36:22.911Z,96101.19
2022-09-26T22:38:49.995Z,96101.56
2022-09-26T22:41:16.322Z,96088.94
2022-09-26T22:43:42.701Z,96087.34
2022-09-26T22:46:10.448Z,96088.91
2022-09-26T22:48:37.731Z,96082.59
2022-09-26T22:51:04.313Z,96084.56
2022-09-26T22:53:31.201Z,96081.03
2022-09-26T22:55:58.213Z,96071.94
2022-09-26T22:58:25.157Z,96072.72
2022-09-26T23:00:51.769Z,96077.47
2022-09-26T23:03:18.181Z,96074.31
2022-09-26T23:05:46.350Z,96071.50
2022-09-26T23:08:12.661Z,96070.34
2022-09-26T23:10:38.967Z,96068.34
2022-09-26T23:13:05.319Z,96059.66
2022-09-26T23:15:31.635Z,96054.94
2022-09-26T23:17:57.941Z,96050.94
2022-09-26T23:20:24.253Z,96052.56
2022-09-26T23:22:50.577Z,96049.41
2022-09-26T23:25:16.954Z,96045.84
2022-09-26T23:27:43.366Z,96045.44
2022-09-26T23:30:09.923Z,96041.50
2022-09-26T23:32:36.282Z,96039.50
2022-09-26T23:35:02.598Z,96042.63
2022-09-26T23:37:28.968Z,96033.56
2022-09-26T23:39:55.299Z,96036.72
2022-09-26T23:42:21.872Z,96041.44
2022-09-26T23:44:48.204Z,96035.56
2022-09-26T23:47:14.534Z,96030.00
2022-09-26T23:49:41.080Z,96027.22
2022-09-26T23:52:07.406Z,96016.97
2022-09-26T23:54:33.714Z,96025.25
2022-09-26T23:57:00.068Z,96017.34
2022-09-26T23:59:26.502Z,96017.34
